Tiempo atmosférico en la estación meteorológica de Jalance, València/Valencia (372 m.)



Fecha
DESCASC
Temp. máxima en grados centígrados (hora)
DESCASC
Temp. mínima en grados centígrados (hora)
DESCASC
Temp. media en grados centígrados
DESCASC
Racha de viento máxima en m/sg (hora)
DESCASC
Velocidad máxima media en intervalos de 10 minutos(hora)
DESCASC
Precipitaciones diarias en mm
DESCASC
Precipitaciones de 00:00 a 06:00 en mm
DESCASC
Precipitaciones de 06:00 a 12:00 en mm
DESCASC
Precipitaciones de 12:00 a 18:00 en mm
DESCASC
Precipitaciones de 18:00 a 24:00 en mm
DESCASC
22-11-2020 14.4 (16:00) 1.7 (03:00) 8 3.89 (13:40) 2.22 (14:20) 0 0 0 0 0
21-11-2020 16.4 (14:40) 0.6 (08:10) 8.5 5.28 (16:30) 2.5 (16:20) 0 0 0 0 0
20-11-2020 18.4 (15:30) 4.6 (23:59) 11.5 3.61 (15:40) 2.22 (15:50) 0 0 0 0 0
19-11-2020 19.7 (15:40) 7 (00:00) 13.4 3.33 (14:10) 1.39 (14:00) 0.2 0 0.2 0 0
18-11-2020 19.9 (15:50) 8 (00:00) 13.9 1.39 (09:40) 0.83 (09:40) 0.2 0 0.2 0 0
17-11-2020 21.8 (15:40) 8.3 (00:00) 15 4.72 (15:20) 1.94 (11:40) 0 0 0 0 0
16-11-2020 22.7 (14:40) 11 (00:00) 16.9 10.83 (01:40) 5 (01:50) 0 0 0 0 0
15-11-2020 20.6 (16:00) 13 (00:00) 16.8 12.5 (06:00) 5.83 (06:20) 0.2 0.2 0 0 0
14-11-2020 15.8 (15:50) 9.5 (00:00) 12.7 1.94 (06:10) 0.83 (06:10) 0.6 0 0.4 0.2 0
13-11-2020 19.2 (16:10) 7.6 (00:00) 13.4 3.89 (15:30) 2.22 (15:00) 0 0 0 0 0
12-11-2020 18.9 (15:20) 4.3 (00:00) 11.6 7.22 (16:20) 2.78 (16:20) 0 0 0 0 0
11-11-2020 17.9 (15:40) 4.8 (00:00) 11.3 3.61 (15:00) 2.5 (15:40) 0 0 0 0 0
10-11-2020 20 (15:20) 6.3 (00:00) 13.2 3.33 (17:30) 1.94 (17:30) 0 0 0 0 0
09-11-2020 20.8 (15:10) 6 (00:00) 13.4 6.11 (15:00) 2.78 (15:00) 0 0 0 0 0
08-11-2020 19.1 (16:30) 5.9 (00:00) 12.5 4.17 (14:10) 2.78 (14:10) 0.2 0 0.2 0 0
07-11-2020 19.2 (15:20) 9.4 (00:00) 14.3 10.56 (04:40) 4.44 (04:40) 11.2 8.8 0.8 1.6 0
06-11-2020 19.8 (13:30) 15.3 (00:00) 17.5 9.17 (20:40) 4.17 (11:20) 0 0 0 0 0
05-11-2020 15.4 (18:40) 12.2 (00:00) 13.8 13.33 (06:00) 5.28 (06:20) 3.8 0.4 1.2 2.2 0
04-11-2020 16.5 (00:00) 11.4 (00:00) 13.9 8.61 (21:20) 3.33 (06:40) 11 2.6 6.4 0.8 1.2
03-11-2020 21.1 (15:50) 3.8 (00:00) 12.5 7.22 (15:10) 3.61 (14:00) 0 0 0 0 0
02-11-2020 27.7 (15:30) 4.2 (00:00) 16 4.17 (16:00) 2.22 (15:50) 0 0 0 0 0
01-11-2020 27.3 (16:00) 4.4 (00:00) 15.8 6.94 (14:30) 3.33 (14:30) 0 0 0 0 0
31-10-2020 27.8 (15:20) 3.9 (00:00) 15.8 6.11 (15:00) 2.78 (14:30) 0 0 0 0 0
30-10-2020 26 (15:40) 4.3 (00:00) 15.2 3.89 (14:10) 2.22 (14:10) 0 0 0 0 0
29-10-2020 24 (16:30) 5.6 (00:00) 14.8 5.83 (15:40) 2.78 (14:30) 0 0 0 0 0
28-10-2020 22 (14:50) 7.1 (00:00) 14.5 7.5 (13:30) 3.61 (15:40) 0 0 0 0 0

Gráficas

Temp. máximas Temp. mínimas Temp. medias Precipitaciones Rachas de viento máximas Velocidades máximas media en intervalos de 10 minutos

Datos horarios

Fecha y hora oficial Temperatura (ºC) Velocidad del viento (km/h) Dirección del viento Racha (km/h) Dirección de racha Precipitación (mm) Presión (hPa) Tendencia (hPa) Humedad (%)
2020-11-26 23:00:00 14.7 4 Sudeste 24 Sur 0 -- -- 72
2020-11-26 22:00:00 14.9 6 Sur 22 Norte 0 -- -- 70
2020-11-26 21:00:00 14.4 4 Norte 14 Este 0 -- -- 77
2020-11-26 20:00:00 14.3 6 Noroeste 15 Norte 0 -- -- 82
2020-11-26 19:00:00 14.7 8 Norte 19 Norte 0 -- -- 82
2020-11-26 18:00:00 15.2 6 Noroeste 29 Norte 0 -- -- 79
2020-11-26 17:00:00 16 4 Este 22 Este 0 -- -- 73
2020-11-26 16:00:00 16.5 6 Norte 19 Este 0 -- -- 70
2020-11-26 15:00:00 16.1 8 Nordeste 22 Nordeste 0 -- -- 72
2020-11-26 14:00:00 15.4 6 Nordeste 19 Norte 0 -- -- 77
2020-11-26 13:00:00 15.2 8 Norte 21 Este 0 -- -- 78
2020-11-26 12:00:00 14.5 4 Nordeste 19 Este 0 -- -- 78
2020-11-26 11:00:00 13.3 4 Norte 15 Norte 0 -- -- 84
2020-11-26 10:00:00 12.6 8 Noroeste 22 Norte 0.2 -- -- 87
2020-11-26 09:00:00 12.2 8 Norte 17 Norte 0.2 -- -- 88
2020-11-26 08:00:00 12.1 8 Norte 17 Noroeste 0 -- -- 86
2020-11-26 07:00:00 9.4 3 Noroeste 5 Noroeste 0 -- -- 94
2020-11-26 06:00:00 7.6 0 Calma 4 Sur 0 -- -- 93
2020-11-26 05:00:00 6.9 2 Sur 5 Sudeste 0 -- -- 93
2020-11-26 04:00:00 6.3 2 Noroeste 6 Sur 0 -- -- 94
2020-11-26 03:00:00 5.8 0 Calma 6 Sudeste 0 -- -- 94
2020-11-26 02:00:00 5.8 0 Calma 3 Sudeste 0 -- -- 93
2020-11-26 01:00:00 5.9 0 Calma 3 Este 0 -- -- 92
2020-11-26 00:00:00 5.8 0 Calma 5 Sudeste 0 -- -- 93
2020-11-25 23:00:00 5.3 0 Calma 3 Oeste 0 -- -- 92
2020-11-25 22:00:00 5.6 0 Calma 4 Sudeste 0 -- -- 90
2020-11-25 21:00:00 6.8 0 Calma 4 Norte 0 -- -- 87
2020-11-25 20:00:00 8 0 Calma 4 Noroeste 0 -- -- 82
2020-11-25 19:00:00 9.7 0 Calma 3 Este 0 -- -- 78
2020-11-25 18:00:00 11.7 3 Noroeste 10 Norte 0 -- -- 70
2020-11-25 17:00:00 14.6 5 Noroeste 13 Norte 0 -- -- 60
2020-11-25 16:00:00 15.2 7 Noroeste 13 Norte 0 -- -- 58
2020-11-25 15:00:00 13.5 8 Norte 13 Norte 0 -- -- 63
2020-11-25 14:00:00 12.3 5 Norte 9 Nordeste 0 -- -- 65
2020-11-25 13:00:00 10.5 5 Nordeste 10 Norte 0 -- -- 69
2020-11-25 12:00:00 7 0 Calma 9 Nordeste 0 -- -- 81
2020-11-25 11:00:00 5.3 0 Calma 10 Norte 0 -- -- 87
2020-11-25 10:00:00 4 0 Calma 5 Este 0 -- -- 98
2020-11-25 09:00:00 0.2 0 Calma 4 Sudeste 0 -- -- 96
2020-11-25 08:00:00 -1 0 Calma 2 Sur 0 -- -- 96
2020-11-25 07:00:00 -0.9 0 Calma 0 Calma 0 -- -- 95
2020-11-25 06:00:00 -0.4 0 Calma 2 Sudoeste 0 -- -- 95
2020-11-25 05:00:00 0.1 0 Calma 5 Norte 0 -- -- 95
2020-11-25 04:00:00 0 0 Calma 0 Calma 0 -- -- 94
2020-11-25 03:00:00 0.4 0 Calma 2 Sudeste 0 -- -- 94
2020-11-25 02:00:00 1 0 Calma 4 Sudeste 0 -- -- 93
2020-11-25 01:00:00 1.7 0 Calma 2 Noroeste 0 -- -- 92
2020-11-25 00:00:00 2.3 0 Calma 2 Sudeste 0 -- -- 92
2020-11-24 23:00:00 3.1 0 Calma 2 Sur 0 -- -- 90
2020-11-24 22:00:00 4 0 Calma 3 Norte 0 -- -- 87
2020-11-24 21:00:00 5.4 0 Calma 2 Sudoeste 0 -- -- 83
2020-11-24 20:00:00 6.8 0 Calma 2 Sudoeste 0 -- -- 82
2020-11-24 19:00:00 8.6 0 Calma 2 Sudoeste 0 -- -- 80
2020-11-24 18:00:00 11 0 Calma 2 Sudeste 0 -- -- 75
2020-11-24 17:00:00 13.6 0 Calma 7 Noroeste 0 -- -- 67
2020-11-24 16:00:00 15.3 3 Noroeste 10 Noroeste 0 -- -- 61
2020-11-24 15:00:00 15.7 3 Sudeste 8 Este 0 -- -- 57
2020-11-24 14:00:00 12.9 2 Sur 5 Este 0 -- -- 68
2020-11-24 13:00:00 9.2 0 Calma 4 Sudoeste 0 -- -- 82
2020-11-24 12:00:00 5.1 0 Calma 5 Este 0 -- -- 97
2020-11-24 11:00:00 3.4 2 Sudeste 4 Sudeste 0 -- -- 97
2020-11-24 10:00:00 2.7 0 Calma 3 Sudeste 0 -- -- 97
2020-11-24 09:00:00 2.1 2 Este 4 Sudeste 0 -- -- 97
2020-11-24 08:00:00 1.7 0 Calma 3 Sudeste 0 -- -- 97
2020-11-24 07:00:00 1.7 0 Calma 2 Sur 0 -- -- 96
2020-11-24 06:00:00 1.9 0 Calma 0 Calma 0 -- -- 96
2020-11-24 05:00:00 1.6 0 Calma 0 Calma 0 -- -- 96
2020-11-24 04:00:00 1.2 0 Calma 2 Sudeste 0 -- -- 96
2020-11-24 03:00:00 0.9 0 Calma 0 Calma 0 -- -- 95
2020-11-24 02:00:00 1.5 0 Calma 0 Calma 0 -- -- 94
2020-11-24 01:00:00 2 0 Calma 2 Sur 0 -- -- 94
2020-11-24 00:00:00 3 0 Calma 0 Calma 0 -- -- 94
2020-11-23 23:00:00 3.9 0 Calma 0 Calma 0 -- -- 93
2020-11-23 22:00:00 4.9 0 Calma 2 Oeste 0 -- -- 91
2020-11-23 21:00:00 6.1 0 Calma 0 Calma 0 -- -- 90
2020-11-23 20:00:00 7.4 0 Calma 2 Norte 0 -- -- 87
2020-11-23 19:00:00 9 0 Calma 2 Sudeste 0 -- -- 81
2020-11-23 18:00:00 11.3 0 Calma 5 Noroeste 0 -- -- 75
2020-11-23 17:00:00 14.3 6 Noroeste 14 Noroeste 0 -- -- 64
2020-11-23 16:00:00 15.8 4 Noroeste 10 Nordeste 0 -- -- 58
2020-11-23 15:00:00 14.7 5 Norte 13 Norte 0 -- -- 59
2020-11-23 14:00:00 12.1 9 Norte 15 Norte 0 -- -- 70
2020-11-23 13:00:00 9.6 5 Norte 13 Nordeste 0 -- -- 77
2020-11-23 12:00:00 6.3 8 Norte 14 Norte 0 -- -- 90
2020-11-23 11:00:00 4.2 7 Norte 11 Norte 0 -- -- 97
2020-11-23 10:00:00 1.9 0 Calma 3 Sudeste 0 -- -- 97
2020-11-23 09:00:00 -0.3 0 Calma 2 Noroeste 0 -- -- 96
2020-11-23 08:00:00 -0.3 0 Calma 0 Calma 0 -- -- 96
2020-11-23 07:00:00 -0.1 0 Calma 2 Noroeste 0 -- -- 96
2020-11-23 06:00:00 -0.6 0 Calma 2 Noroeste 0 -- -- 96
2020-11-23 05:00:00 -0.9 0 Calma 0 Calma 0 -- -- 95
2020-11-23 04:00:00 -0.3 0 Calma 0 Calma 0 -- -- 95
2020-11-23 03:00:00 0.3 0 Calma 2 Este 0 -- -- 95
2020-11-23 02:00:00 0.8 0 Calma 2 Sudeste 0 -- -- 94
2020-11-23 01:00:00 1.3 0 Calma 2 Sudeste 0 -- -- 93
2020-11-23 00:00:00 2 0 Calma 2 Sudeste 0 -- -- 92
2020-11-22 23:00:00 2.9 0 Calma 2 Sudeste 0 -- -- 92
2020-11-22 22:00:00 3.8 0 Calma 2 Sudoeste 0 -- -- 91
2020-11-22 21:00:00 4.7 0 Calma 2 Sudeste 0 -- -- 90
2020-11-22 20:00:00 5.9 0 Calma 2 Oeste 0 -- -- 87
2020-11-22 19:00:00 7.5 0 Calma 0 Calma 0 -- -- 84
2020-11-22 18:00:00 9.7 0 Calma 3 Sudoeste 0 -- -- 78
2020-11-22 17:00:00 12.2 0 Calma 8 Noroeste 0 -- -- 69
2020-11-22 16:00:00 14.4 5 Oeste 10 Nordeste 0 -- -- 61
2020-11-22 15:00:00 12.8 7 Norte 14 Norte 0 -- -- 68
2020-11-22 14:00:00 11 5 Norte 14 Nordeste 0 -- -- 73
2020-11-22 13:00:00 9.8 5 Norte 8 Noroeste 0 -- -- 78
2020-11-22 12:00:00 8.1 3 Nordeste 6 Norte 0 -- -- 85
2020-11-22 11:00:00 6.6 4 Norte 9 Nordeste 0 -- -- 90
2020-11-22 10:00:00 5.6 0 Calma 3 Norte 0 -- -- 95
2020-11-22 09:00:00 4.8 0 Calma 3 Oeste 0 -- -- 96
2020-11-22 08:00:00 4 0 Calma 4 Sudeste 0 -- -- 96
2020-11-22 07:00:00 4 2 Este 4 Este 0 -- -- 96
2020-11-22 06:00:00 3.7 0 Calma 2 Sudoeste 0 -- -- 96
2020-11-22 05:00:00 2.7 0 Calma 3 Este 0 -- -- 96
2020-11-22 04:00:00 2.2 0 Calma 10 Norte 0 -- -- 95
2020-11-22 03:00:00 1.7 0 Calma 2 Sudeste 0 -- -- 95
2020-11-22 02:00:00 2.5 0 Calma 2 Sudeste 0 -- -- 93
2020-11-22 01:00:00 3.1 0 Calma 2 Sudeste 0 -- -- 93
2020-11-22 00:00:00 3.8 0 Calma 0 Calma 0 -- -- 92
2020-11-21 23:00:00 4.9 0 Calma 2 Sur 0 -- -- 92
2020-11-21 22:00:00 5.8 0 Calma 3 Noroeste 0 -- -- 89
2020-11-21 21:00:00 6.9 0 Calma 3 Sudeste 0 -- -- 87
2020-11-21 20:00:00 8.5 0 Calma 3 Sudoeste 0 -- -- 83
2020-11-21 19:00:00 10.2 0 Calma 8 Sudeste 0 -- -- 76
2020-11-21 18:00:00 12.2 0 Calma 14 Norte 0 -- -- 68
2020-11-21 17:00:00 14.8 8 Norte 19 Nordeste 0 -- -- 57
2020-11-21 16:00:00 16.3 8 Norte 16 Nordeste 0 -- -- 51
2020-11-21 15:00:00 16.3 7 Nordeste 14 Este 0 -- -- 54
2020-11-21 14:00:00 15.3 5 Norte 13 Norte 0 -- -- 57
2020-11-21 13:00:00 13.6 6 Norte 11 Nordeste 0 -- -- 64
2020-11-21 12:00:00 10.8 3 Este 8 Este 0 -- -- 73
2020-11-21 11:00:00 6.5 0 Calma 4 Este 0 -- -- 97
2020-11-21 10:00:00 3.4 0 Calma 3 Este 0 -- -- 97
2020-11-21 09:00:00 2 0 Calma 5 Este 0 -- -- 97
2020-11-21 08:00:00 0.7 0 Calma 2 Sudeste 0 -- -- 96
2020-11-21 07:00:00 1 0 Calma 6 Sudeste 0 -- -- 95
2020-11-21 06:00:00 1.3 0 Calma 2 Sudeste 0 -- -- 95
2020-11-21 05:00:00 1.7 0 Calma 4 Sudeste 0 -- -- 95
2020-11-21 04:00:00 2.2 0 Calma 2 Sudeste 0 -- -- 95
2020-11-21 03:00:00 2.8 0 Calma 5 Sur 0 -- -- 94
2020-11-21 02:00:00 3.3 0 Calma 6 Sudeste 0 -- -- 94
2020-11-21 01:00:00 3.8 0 Calma 3 Este 0 -- -- 92
2020-11-21 00:00:00 4.6 0 Calma 7 Sudeste 0 -- -- 91
2020-11-20 23:00:00 5.5 0 Calma 7 Noroeste 0 -- -- 90
2020-11-20 22:00:00 6.1 0 Calma 4 Sudeste 0 -- -- 88
2020-11-20 21:00:00 7.4 0 Calma 2 Sudoeste 0 -- -- 86
2020-11-20 20:00:00 8.2 2 Sur 6 Sudeste 0 -- -- 81
2020-11-20 19:00:00 9.8 3 Oeste 7 Sudeste 0 -- -- 75
2020-11-20 18:00:00 12.3 0 Calma 4 Norte 0 -- -- 65
2020-11-20 17:00:00 14.9 2 Noroeste 10 Noroeste 0 -- -- 56
2020-11-20 16:00:00 18.2 7 Noroeste 13 Noroeste 0 -- -- 51
2020-11-20 15:00:00 17.9 3 Nordeste 9 Este 0 -- -- 53
2020-11-20 14:00:00 17 4 Sudeste 10 Sudeste 0 -- -- 58
2020-11-20 13:00:00 15.4 2 Sudoeste 12 Este 0 -- -- 59
2020-11-20 12:00:00 13.1 3 Sudeste 9 Este 0 -- -- 77
2020-11-20 11:00:00 8.5 0 Calma 4 Sudeste 0 -- -- 98
2020-11-20 10:00:00 6.2 0 Calma 4 Norte 0 -- -- 98
2020-11-20 09:00:00 5.6 0 Calma 5 Noroeste 0 -- -- 97
2020-11-20 08:00:00 5.6 0 Calma 12 Norte 0 -- -- 97
2020-11-20 07:00:00 5.8 2 Noroeste 8 Norte 0 -- -- 97
2020-11-20 06:00:00 5.9 4 Noroeste 11 Noroeste 0 -- -- 97
2020-11-20 05:00:00 5.7 0 Calma 4 Sudeste 0 -- -- 96
2020-11-20 04:00:00 5.3 0 Calma 3 Sudeste 0 -- -- 95
2020-11-20 03:00:00 6 0 Calma 4 Este 0 -- -- 95
2020-11-20 02:00:00 6.6 0 Calma 3 Sudeste 0 -- -- 94
2020-11-20 01:00:00 7.3 2 Sudeste 4 Norte 0 -- -- 95
2020-11-20 00:00:00 8 0 Calma 3 Noroeste 0 -- -- 95
2020-11-19 23:00:00 8.7 0 Calma 6 Sur 0 -- -- 93
2020-11-19 22:00:00 9.4 0 Calma 4 Sudeste 0 -- -- 93
2020-11-19 21:00:00 10.4 0 Calma 4 Sudeste 0 -- -- 90
2020-11-19 20:00:00 11.2 0 Calma 4 Sudeste 0 -- -- 88
2020-11-19 19:00:00 12.7 0 Calma 4 Noroeste 0 -- -- 84
2020-11-19 18:00:00 14.5 0 Calma 5 Sur 0 -- -- 78
2020-11-19 17:00:00 17.5 0 Calma 5 Sudoeste 0 -- -- 67
2020-11-19 16:00:00 19.7 0 Calma 4 Oeste 0 -- -- 61
2020-11-19 15:00:00 18.3 2 Sudoeste 12 Norte 0 -- -- 68
2020-11-19 14:00:00 14.9 5 Nordeste 10 Este 0 -- -- 80
2020-11-19 13:00:00 11.9 4 Norte 8 Norte 0 -- -- 91
2020-11-19 12:00:00 10.1 0 Calma 4 Este 0 -- -- 96
2020-11-19 11:00:00 9.3 3 Sudeste 6 Este 0 -- -- 97
2020-11-19 10:00:00 9 3 Sudeste 7 Este 0 -- -- 97
2020-11-19 09:00:00 8.3 0 Calma 3 Este 0.2 -- -- 97
2020-11-19 08:00:00 8.3 0 Calma 3 Oeste 0 -- -- 97
2020-11-19 07:00:00 7.9 0 Calma 2 Este 0 -- -- 97
2020-11-19 06:00:00 7.5 0 Calma 3 Este 0 -- -- 97
2020-11-19 05:00:00 7.3 0 Calma 2 Este 0 -- -- 97
2020-11-19 04:00:00 7.3 0 Calma 2 Este 0 -- -- 96
2020-11-19 03:00:00 7.1 0 Calma 2 Sudeste 0 -- -- 96
2020-11-19 02:00:00 7 0 Calma 2 Este 0 -- -- 95
2020-11-19 01:00:00 7.5 0 Calma 2 Sudeste 0 -- -- 94
2020-11-19 00:00:00 8.3 0 Calma 2 Sudeste 0 -- -- 93
2020-11-18 23:00:00 9.1 0 Calma 2 Sudoeste 0 -- -- 93
2020-11-18 22:00:00 9.8 0 Calma 3 Sur 0 -- -- 93
2020-11-18 21:00:00 10.8 0 Calma 2 Sudeste 0 -- -- 92
2020-11-18 20:00:00 12 0 Calma 2 Sudoeste 0 -- -- 90
2020-11-18 19:00:00 13 0 Calma 3 Oeste 0 -- -- 87
2020-11-18 18:00:00 15.1 0 Calma 3 Este 0 -- -- 82
2020-11-18 17:00:00 17.5 2 Sudoeste 5 Oeste 0 -- -- 73
2020-11-18 16:00:00 19.8 0 Calma 4 Sudoeste 0 -- -- 66
2020-11-18 15:00:00 18.3 2 Oeste 4 Sudoeste 0 -- -- 68
2020-11-18 14:00:00 14.7 2 Sur 5 Sudoeste 0 -- -- 83
2020-11-18 13:00:00 11.7 2 Este 5 Norte 0 -- -- 94
2020-11-18 12:00:00 10.7 0 Calma 4 Este 0 -- -- 97
2020-11-18 11:00:00 9.9 2 Sudeste 5 Sudeste 0 -- -- 97
2020-11-18 10:00:00 9.4 3 Este 5 Este 0.2 -- -- 97
2020-11-18 09:00:00 9.1 0 Calma 2 Este 0 -- -- 97
2020-11-18 08:00:00 8.7 0 Calma 3 Este 0 -- -- 97
2020-11-18 07:00:00 8.5 0 Calma 2 Sur 0 -- -- 96
2020-11-18 06:00:00 8.6 0 Calma 2 Sur 0 -- -- 97
2020-11-18 05:00:00 8.4 0 Calma 3 Sudeste 0 -- -- 96
2020-11-18 04:00:00 8.4 0 Calma 3 Este 0 -- -- 96
2020-11-18 03:00:00 8.3 0 Calma 3 Este 0 -- -- 95
2020-11-18 02:00:00 8.4 0 Calma 2 Nordeste 0 -- -- 95
2020-11-18 01:00:00 8.2 0 Calma 3 Sudeste 0 -- -- 94
2020-11-18 00:00:00 9 0 Calma 2 Sudeste 0 -- -- 93
2020-11-17 23:00:00 9.7 0 Calma 2 Sudeste 0 -- -- 92
2020-11-17 22:00:00 10.5 0 Calma 3 Sudeste 0 -- -- 91
2020-11-17 21:00:00 11.5 0 Calma 3 Sudeste 0 -- -- 89
2020-11-17 20:00:00 12.5 0 Calma 6 Noroeste 0 -- -- 85
2020-11-17 19:00:00 13.8 0 Calma 3 Sudoeste 0 -- -- 80
2020-11-17 18:00:00 15.9 0 Calma 4 Oeste 0 -- -- 73
2020-11-17 17:00:00 18.5 0 Calma 6 Noroeste 0 -- -- 62
2020-11-17 16:00:00 21.7 2 Norte 17 Sur 0 -- -- 51
2020-11-17 15:00:00 20.9 3 Noroeste 8 Norte 0 -- -- 57
2020-11-17 14:00:00 18.1 3 Sudeste 10 Noroeste 0 -- -- 69
2020-11-17 13:00:00 14.9 5 Norte 11 Norte 0 -- -- 80
2020-11-17 12:00:00 13 6 Norte 12 Noroeste 0 -- -- 88
2020-11-17 11:00:00 11.6 2 Nordeste 8 Norte 0 -- -- 92
2020-11-17 10:00:00 11.3 0 Calma 4 Noroeste 0 -- -- 94
2020-11-17 09:00:00 10.2 2 Este 5 Noroeste 0 -- -- 95
2020-11-17 08:00:00 9.8 2 Noroeste 5 Sudeste 0 -- -- 96
2020-11-17 07:00:00 9.4 0 Calma 4 Este 0 -- -- 96
2020-11-17 06:00:00 8.6 0 Calma 4 Este 0 -- -- 95
2020-11-17 05:00:00 8.3 0 Calma 3 Oeste 0 -- -- 95
2020-11-17 04:00:00 8.6 0 Calma 4 Noroeste 0 -- -- 94
2020-11-17 03:00:00 9.1 0 Calma 4 Norte 0 -- -- 94
2020-11-17 02:00:00 9.8 2 Norte 4 Norte 0 -- -- 93
2020-11-17 01:00:00 10.3 0 Calma 2 Sudoeste 0 -- -- 92
2020-11-17 00:00:00 11 0 Calma 2 Sudoeste 0 -- -- 91
2020-11-16 23:00:00 12.3 0 Calma 2 Sudeste 0 -- -- 88
2020-11-16 22:00:00 13.8 0 Calma 6 Noroeste 0 -- -- 83
2020-11-16 21:00:00 15.5 6 Noroeste 14 Norte 0 -- -- 78
2020-11-16 20:00:00 16.3 9 Noroeste 18 Norte 0 -- -- 76
2020-11-16 19:00:00 17.5 11 Noroeste 19 Noroeste 0 -- -- 78
2020-11-16 18:00:00 19.2 11 Noroeste 18 Noroeste 0 -- -- 68
2020-11-16 17:00:00 20.9 3 Sudeste 14 Noroeste 0 -- -- 62
2020-11-16 16:00:00 22 7 Sudoeste 27 Sudoeste 0 -- -- 56
2020-11-16 15:00:00 22.4 6 Noroeste 19 Noroeste 0 -- -- 56
2020-11-16 14:00:00 22.1 8 Sudoeste 23 Sudoeste 0 -- -- 56
2020-11-16 13:00:00 21.3 9 Sur 21 Sudoeste 0 -- -- 63
2020-11-16 12:00:00 19.6 12 Sudoeste 19 Sudoeste 0 -- -- 69
2020-11-16 11:00:00 17.8 9 Sur 19 Sudoeste 0 -- -- 74
2020-11-16 10:00:00 16.9 3 Sudeste 14 Este 0 -- -- 76
2020-11-16 09:00:00 15.8 6 Este 13 Este 0 -- -- 79
2020-11-16 08:00:00 16.2 9 Noroeste 19 Noroeste 0 -- -- 76
2020-11-16 07:00:00 16.2 3 Sudeste 18 Oeste 0 -- -- 76
2020-11-16 06:00:00 15.7 7 Norte 24 Noroeste 0 -- -- 78
2020-11-16 05:00:00 17.1 8 Norte 24 Noroeste 0 -- -- 71
2020-11-16 04:00:00 18.3 9 Noroeste 24 Noroeste 0 -- -- 66
2020-11-16 03:00:00 19.2 15 Noroeste 36 Noroeste 0 -- -- 63
2020-11-16 02:00:00 19.3 15 Noroeste 39 Noroeste 0 -- -- 65
2020-11-16 01:00:00 19.4 17 Noroeste 31 Noroeste 0 -- -- 66
2020-11-16 00:00:00 18.3 3 Sudeste 9 Sudeste 0 -- -- 72
2020-11-15 23:00:00 18.5 5 Sudeste 29 Noroeste 0 -- -- 72
2020-11-15 22:00:00 19.1 7 Norte 30 Noroeste 0 -- -- 69
2020-11-15 21:00:00 19 8 Norte 29 Noroeste 0 -- -- 69
2020-11-15 20:00:00 15 4 Sudoeste 24 Sudoeste 0 -- -- 88
2020-11-15 19:00:00 16.2 0 Calma 19 Noroeste 0 -- -- 82
2020-11-15 18:00:00 17.2 4 Oeste 9 Noroeste 0 -- -- 78
2020-11-15 17:00:00 19.3 2 Noroeste 17 Oeste 0 -- -- 70
2020-11-15 16:00:00 20.6 8 Noroeste 26 Oeste 0 -- -- 65
2020-11-15 15:00:00 19.7 11 Noroeste 25 Norte 0 -- -- 67
2020-11-15 14:00:00 19.4 5 Noroeste 14 Sudoeste 0 -- -- 67
2020-11-15 13:00:00 17.3 3 Este 15 Noroeste 0 -- -- 74
2020-11-15 12:00:00 16.8 4 Sur 9 Sudoeste 0 -- -- 75
2020-11-15 11:00:00 16.6 2 Sudeste 12 Este 0 -- -- 74
2020-11-15 10:00:00 16.9 7 Norte 26 Noroeste 0 -- -- 73
2020-11-15 09:00:00 15.3 8 Noroeste 28 Noroeste 0 -- -- 77
2020-11-15 08:00:00 15.2 13 Oeste 32 Oeste 0 -- -- 78
2020-11-15 07:00:00 15.5 11 Noroeste 43 Noroeste 0 -- -- 77
2020-11-15 06:00:00 15.8 18 Noroeste 45 Noroeste 0.2 -- -- 75
2020-11-15 05:00:00 15.5 6 Nordeste 23 Noroeste 0 -- -- 78
2020-11-15 04:00:00 15.3 6 Norte 26 Noroeste 0 -- -- 83
2020-11-15 03:00:00 14.3 4 Sudeste 15 Noroeste 0 -- -- 95
2020-11-15 02:00:00 13.1 0 Calma 4 Este 0 -- -- 96
2020-11-15 01:00:00 13.2 0 Calma 4 Este 0 -- -- 96
2020-11-15 00:00:00 13.2 0 Calma 2 Noroeste 0 -- -- 96
2020-11-14 23:00:00 13.2 0 Calma 4 Noroeste 0 -- -- 95
2020-11-14 22:00:00 13.2 0 Calma 3 Nordeste 0 -- -- 95
2020-11-14 21:00:00 13.4 0 Calma 2 Sudeste 0 -- -- 94
2020-11-14 20:00:00 13.7 0 Calma 2 Nordeste 0 -- -- 93
2020-11-14 19:00:00 14.1 0 Calma 2 Sur 0 -- -- 91
2020-11-14 18:00:00 15.2 0 Calma 2 Sudeste 0 -- -- 90
2020-11-14 17:00:00 15.6 0 Calma 4 Este 0 -- -- 88
2020-11-14 16:00:00 15.8 0 Calma 3 Este 0 -- -- 87
2020-11-14 15:00:00 15 0 Calma 2 Este 0 -- -- 91
2020-11-14 14:00:00 14.3 2 Sudeste 4 Sudeste 0.2 -- -- 92
2020-11-14 13:00:00 14 0 Calma 5 Sudeste 0 -- -- 92
2020-11-14 12:00:00 13.5 0 Calma 2 Sudeste 0.2 -- -- 93
2020-11-14 11:00:00 12.2 0 Calma 2 Este 0 -- -- 96
2020-11-14 10:00:00 11.1 0 Calma 3 Este 0.2 -- -- 96
2020-11-14 09:00:00 10.2 0 Calma 2 Noroeste 0 -- -- 96
2020-11-14 08:00:00 9.6 0 Calma 0 Calma 0 -- -- 96
2020-11-14 07:00:00 9.6 0 Calma 7 Norte 0 -- -- 96
2020-11-14 06:00:00 9.9 0 Calma 6 Norte 0 -- -- 96
2020-11-14 05:00:00 9.5 0 Calma 2 Sudeste 0 -- -- 95
2020-11-14 04:00:00 9.5 0 Calma 4 Noroeste 0 -- -- 95
2020-11-14 03:00:00 9.9 0 Calma 3 Sudeste 0 -- -- 95
2020-11-14 02:00:00 10.3 0 Calma 2 Norte 0 -- -- 94
2020-11-14 01:00:00 10.4 0 Calma 2 Sudeste 0 -- -- 93
2020-11-14 00:00:00 10.7 0 Calma 3 Noroeste 0 -- -- 93
2020-11-13 23:00:00 10.8 0 Calma 4 Sudeste 0 -- -- 92
2020-11-13 22:00:00 11.3 0 Calma 3 Norte 0 -- -- 92
2020-11-13 21:00:00 11.6 0 Calma 3 Sudeste 0 -- -- 91
2020-11-13 20:00:00 12.3 0 Calma 3 Sur 0 -- -- 88
2020-11-13 19:00:00 13.5 0 Calma 8 Noroeste 0 -- -- 83
2020-11-13 18:00:00 15.9 5 Noroeste 11 Noroeste 0 -- -- 76
2020-11-13 17:00:00 17.9 4 Norte 12 Norte 0 -- -- 68
2020-11-13 16:00:00 19.1 6 Norte 14 Nordeste 0 -- -- 62
2020-11-13 15:00:00 18.8 8 Noroeste 12 Norte 0 -- -- 63
2020-11-13 14:00:00 18.5 4 Norte 12 Norte 0 -- -- 66
2020-11-13 13:00:00 17.2 6 Norte 10 Nordeste 0 -- -- 71
2020-11-13 12:00:00 16.2 4 Sudeste 8 Sudeste 0 -- -- 74
2020-11-13 11:00:00 13.9 2 Nordeste 6 Este 0 -- -- 79
2020-11-13 10:00:00 11 2 Este 4 Este 0 -- -- 89
2020-11-13 09:00:00 9.9 0 Calma 3 Este 0 -- -- 92
2020-11-13 08:00:00 9.3 0 Calma 3 Noroeste 0 -- -- 92
2020-11-13 07:00:00 9.2 0 Calma 2 Noroeste 0 -- -- 91
2020-11-13 06:00:00 9.6 0 Calma 8 Noroeste 0 -- -- 89
2020-11-13 05:00:00 9.9 0 Calma 8 Noroeste 0 -- -- 89
2020-11-13 04:00:00 9.8 2 Noroeste 8 Norte 0 -- -- 89
2020-11-13 03:00:00 9.3 0 Calma 4 Sudeste 0 -- -- 93
2020-11-13 02:00:00 8.8 0 Calma 4 Sudeste 0 -- -- 94
2020-11-13 01:00:00 8.2 0 Calma 2 Este 0 -- -- 94
2020-11-13 00:00:00 7.6 0 Calma 8 Sudeste 0 -- -- 92
2020-11-12 23:00:00 8.4 0 Calma 3 Sudoeste 0 -- -- 90
2020-11-12 22:00:00 9.4 0 Calma 3 Noroeste 0 -- -- 87
2020-11-12 21:00:00 10.4 0 Calma 4 Noroeste 0 -- -- 84
2020-11-12 20:00:00 12 0 Calma 6 Noroeste 0 -- -- 77
2020-11-12 19:00:00 13.4 2 Oeste 8 Noroeste 0 -- -- 72
2020-11-12 18:00:00 15.5 0 Calma 10 Este 0 -- -- 65
2020-11-12 17:00:00 17.3 3 Norte 26 Norte 0 -- -- 56
2020-11-12 16:00:00 18 6 Norte 16 Nordeste 0 -- -- 52
2020-11-12 15:00:00 18.5 6 Norte 13 Noroeste 0 -- -- 53
2020-11-12 14:00:00 17.6 5 Norte 13 Norte 0 -- -- 58
2020-11-12 13:00:00 14.6 3 Sudeste 7 Sudeste 0 -- -- 71
2020-11-12 12:00:00 12.2 0 Calma 6 Sudeste 0 -- -- 80
2020-11-12 11:00:00 8.4 0 Calma 9 Nordeste 0 -- -- 97
2020-11-12 10:00:00 6.3 3 Norte 6 Norte 0 -- -- 97
2020-11-12 09:00:00 5.1 2 Este 4 Este 0 -- -- 97
2020-11-12 08:00:00 4.8 0 Calma 2 Este 0 -- -- 97
2020-11-12 07:00:00 4.6 0 Calma 2 Noroeste 0 -- -- 97
2020-11-12 06:00:00 4.7 0 Calma 4 Norte 0 -- -- 96
2020-11-12 05:00:00 4.6 0 Calma 5 Sudeste 0 -- -- 96
2020-11-12 04:00:00 4.5 0 Calma 4 Sudeste 0 -- -- 95
2020-11-12 03:00:00 5.2 0 Calma 2 Este 0 -- -- 94
2020-11-12 02:00:00 5.7 0 Calma 2 Sudoeste 0 -- -- 95
2020-11-12 01:00:00 6.1 0 Calma 2 Sudeste 0 -- -- 94
2020-11-12 00:00:00 6.6 0 Calma 2 Sudeste 0 -- -- 94
2020-11-11 23:00:00 7.3 0 Calma 3 Sudeste 0 -- -- 93
2020-11-11 22:00:00 8 0 Calma 5 Sudeste 0 -- -- 92
2020-11-11 21:00:00 9 0 Calma 0 Calma 0 -- -- 89
2020-11-11 20:00:00 10.2 0 Calma 4 Oeste 0 -- -- 87
2020-11-11 19:00:00 11.4 0 Calma 4 Oeste 0 -- -- 83
2020-11-11 18:00:00 13.9 0 Calma 7 Noroeste 0 -- -- 75
2020-11-11 17:00:00 16.4 0 Calma 11 Norte 0 -- -- 69
2020-11-11 16:00:00 17.9 7 Norte 13 Nordeste 0 -- -- 62
2020-11-11 15:00:00 17 8 Norte 13 Nordeste 0 -- -- 65
2020-11-11 14:00:00 15.4 3 Nordeste 12 Nordeste 0 -- -- 73
2020-11-11 13:00:00 13 3 Este 8 Sudeste 0 -- -- 82
2020-11-11 12:00:00 11.2 4 Este 9 Nordeste 0 -- -- 89
2020-11-11 11:00:00 9.8 0 Calma 4 Este 0 -- -- 95
2020-11-11 10:00:00 8.8 0 Calma 3 Este 0 -- -- 96
2020-11-11 09:00:00 8 0 Calma 3 Noroeste 0 -- -- 96
2020-11-11 08:00:00 7.5 0 Calma 3 Sudeste 0 -- -- 97
2020-11-11 07:00:00 6.5 0 Calma 3 Sudeste 0 -- -- 96
2020-11-11 06:00:00 5.8 0 Calma 2 Sudeste 0 -- -- 96
2020-11-11 05:00:00 5 0 Calma 2 Sudoeste 0 -- -- 95
2020-11-11 04:00:00 5.2 0 Calma 0 Calma 0 -- -- 94
2020-11-11 03:00:00 5.8 0 Calma 0 Calma 0 -- -- 94
2020-11-11 02:00:00 6.2 0 Calma 0 Calma 0 -- -- 94
2020-11-11 01:00:00 6.6 0 Calma 2 Sudeste 0 -- -- 93
2020-11-11 00:00:00 7 0 Calma 2 Sudeste 0 -- -- 92
2020-11-10 23:00:00 7.8 0 Calma 3 Noroeste 0 -- -- 90
2020-11-10 22:00:00 8.7 0 Calma 2 Sudeste 0 -- -- 88
2020-11-10 21:00:00 9.7 0 Calma 3 Sudeste 0 -- -- 84
2020-11-10 20:00:00 10.8 0 Calma 3 Noroeste 0 -- -- 80
2020-11-10 19:00:00 12.1 0 Calma 8 Sudoeste 0 -- -- 74
2020-11-10 18:00:00 14.9 0 Calma 12 Oeste 0 -- -- 65
2020-11-10 17:00:00 17.3 4 Oeste 8 Noroeste 0 -- -- 59
2020-11-10 16:00:00 20 2 Norte 9 Norte 0 -- -- 48
2020-11-10 15:00:00 19.7 5 Noroeste 11 Norte 0 -- -- 53
2020-11-10 14:00:00 18.3 3 Norte 8 Norte 0 -- -- 59
2020-11-10 13:00:00 15.3 3 Sudoeste 7 Sudoeste 0 -- -- 73
2020-11-10 12:00:00 12 3 Sur 9 Este 0 -- -- 85
2020-11-10 11:00:00 9.4 0 Calma 5 Norte 0 -- -- 97
2020-11-10 10:00:00 8.2 4 Norte 6 Norte 0 -- -- 97
2020-11-10 09:00:00 7.4 0 Calma 0 Calma 0 -- -- 97
2020-11-10 08:00:00 6.8 0 Calma 2 Este 0 -- -- 96
2020-11-10 07:00:00 6.7 0 Calma 4 Norte 0 -- -- 96
2020-11-10 06:00:00 6.7 3 Norte 5 Noroeste 0 -- -- 96
2020-11-10 05:00:00 7 0 Calma 4 Norte 0 -- -- 95
2020-11-10 04:00:00 7.8 0 Calma 6 Nordeste 0 -- -- 95
2020-11-10 03:00:00 8.1 0 Calma 3 Sudeste 0 -- -- 94
2020-11-10 02:00:00 8.6 0 Calma 3 Sudeste 0 -- -- 94
2020-11-10 01:00:00 9 0 Calma 3 Oeste 0 -- -- 93
2020-11-10 00:00:00 9.7 0 Calma 4 Norte 0 -- -- 91
2020-11-09 23:00:00 10.7 2 Sudeste 6 Noroeste 0 -- -- 89
2020-11-09 22:00:00 11.1 0 Calma 4 Sudeste 0 -- -- 89
2020-11-09 21:00:00 11.5 0 Calma 3 Sudoeste 0 -- -- 86
2020-11-09 20:00:00 12.3 0 Calma 4 Noroeste 0 -- -- 83
2020-11-09 19:00:00 13.6 0 Calma 4 Norte 0 -- -- 79
2020-11-09 18:00:00 15.7 0 Calma 5 Sudoeste 0 -- -- 70
2020-11-09 17:00:00 18.6 4 Noroeste 15 Noroeste 0 -- -- 59
2020-11-09 16:00:00 20.5 7 Noroeste 17 Oeste 0 -- -- 50
2020-11-09 15:00:00 20.7 10 Sur 22 Sudoeste 0 -- -- 51
2020-11-09 14:00:00 19 3 Sudeste 8 Este 0 -- -- 62
2020-11-09 13:00:00 16 2 Norte 8 Este 0 -- -- 72
2020-11-09 12:00:00 12.7 2 Sudeste 6 Este 0 -- -- 87
2020-11-09 11:00:00 9.3 0 Calma 5 Norte 0 -- -- 98
2020-11-09 10:00:00 7.6 0 Calma 4 Este 0 -- -- 97
2020-11-09 09:00:00 6.6 0 Calma 4 Este 0 -- -- 97
2020-11-09 08:00:00 6.4 3 Sudeste 4 Sudeste 0 -- -- 96
2020-11-09 07:00:00 6.3 0 Calma 3 Noroeste 0 -- -- 96
2020-11-09 06:00:00 6.5 0 Calma 4 Nordeste 0 -- -- 96
2020-11-09 05:00:00 6.2 0 Calma 2 Noroeste 0 -- -- 96
2020-11-09 04:00:00 6.1 0 Calma 2 Sudoeste 0 -- -- 95
2020-11-09 03:00:00 6.4 0 Calma 0 Calma 0 -- -- 95
2020-11-09 02:00:00 7.2 0 Calma 2 Sudeste 0 -- -- 95
2020-11-09 01:00:00 7.7 0 Calma 2 Sudeste 0 -- -- 94
2020-11-09 00:00:00 8.2 0 Calma 2 Sudeste 0 -- -- 94
2020-11-08 23:00:00 8.8 0 Calma 2 Sudoeste 0 -- -- 93
2020-11-08 22:00:00 9.5 0 Calma 4 Sudeste 0 -- -- 92
2020-11-08 21:00:00 10.6 0 Calma 2 Oeste 0 -- -- 90
2020-11-08 20:00:00 11.6 0 Calma 2 Sudoeste 0 -- -- 86
2020-11-08 19:00:00 12.9 0 Calma 5 Noroeste 0 -- -- 82
2020-11-08 18:00:00 15.5 0 Calma 9 Noroeste 0 -- -- 73
2020-11-08 17:00:00 18.2 0 Calma 6 Oeste 0 -- -- 66
2020-11-08 16:00:00 18.8 4 Norte 14 Norte 0 -- -- 60
2020-11-08 15:00:00 17.8 9 Norte 15 Nordeste 0 -- -- 63
2020-11-08 14:00:00 16.5 8 Norte 13 Norte 0 -- -- 66
2020-11-08 13:00:00 15.1 3 Nordeste 9 Norte 0 -- -- 72
2020-11-08 12:00:00 12 4 Nordeste 8 Nordeste 0 -- -- 86
2020-11-08 11:00:00 9 2 Oeste 8 Norte 0 -- -- 98
2020-11-08 10:00:00 7.4 3 Nordeste 8 Nordeste 0 -- -- 97
2020-11-08 09:00:00 6.6 2 Noroeste 5 Noroeste 0 -- -- 97
2020-11-08 08:00:00 6.2 0 Calma 5 Norte 0.2 -- -- 96
2020-11-08 07:00:00 6 0 Calma 4 Norte 0 -- -- 96
2020-11-08 06:00:00 5.9 0 Calma 4 Sur 0 -- -- 96
2020-11-08 05:00:00 6.3 0 Calma 3 Sudeste 0 -- -- 95
2020-11-08 04:00:00 6.8 0 Calma 3 Sudeste 0 -- -- 95
2020-11-08 03:00:00 7.4 0 Calma 4 Sur 0 -- -- 95
2020-11-08 02:00:00 8 2 Sur 5 Sudeste 0 -- -- 94
2020-11-08 01:00:00 8.9 2 Noroeste 8 Sudeste 0 -- -- 94
2020-11-08 00:00:00 9.4 3 Noroeste 9 Sudeste 0 -- -- 93
2020-11-07 23:00:00 9.6 2 Norte 5 Norte 0 -- -- 93
2020-11-07 22:00:00 10.3 0 Calma 4 Sudeste 0 -- -- 91
2020-11-07 21:00:00 10.9 0 Calma 6 Sudoeste 0 -- -- 91
2020-11-07 20:00:00 12.3 0 Calma 4 Noroeste 0 -- -- 86
2020-11-07 19:00:00 13.6 0 Calma 5 Sudoeste 0 -- -- 81
2020-11-07 18:00:00 15.5 0 Calma 14 Nordeste 0 -- -- 73
2020-11-07 17:00:00 18.2 4 Sudeste 27 Sur 0 -- -- 58
2020-11-07 16:00:00 19.2 8 Sur 28 Sur 0 -- -- 58
2020-11-07 15:00:00 19 9 Norte 22 Sudoeste 0 -- -- 58
2020-11-07 14:00:00 15.6 2 Este 17 Sudeste 0 -- -- 77
2020-11-07 13:00:00 14.3 0 Calma 18 Sudeste 1.6 -- -- 82
2020-11-07 12:00:00 16.3 5 Norte 14 Norte 0 -- -- 80
2020-11-07 11:00:00 15 0 Calma 4 Sudeste 0 -- -- 90
2020-11-07 10:00:00 13.5 2 Este 5 Este 0 -- -- 94
2020-11-07 09:00:00 12.7 0 Calma 5 Oeste 0 -- -- 94
2020-11-07 08:00:00 12.6 0 Calma 14 Norte 0.2 -- -- 93
2020-11-07 07:00:00 12.9 3 Norte 8 Oeste 0.6 -- -- 93
2020-11-07 06:00:00 13.5 4 Noroeste 21 Sudeste 7.2 -- -- 90
2020-11-07 05:00:00 15.1 7 Nordeste 38 Noroeste 1.4 -- -- 80
2020-11-07 04:00:00 17.8 5 Norte 14 Norte 0 -- -- 83
2020-11-07 03:00:00 17.7 8 Norte 28 Nordeste 0 -- -- 84
2020-11-07 02:00:00 17.3 10 Norte 28 Nordeste 0.2 -- -- 87
2020-11-07 01:00:00 17.8 12 Norte 22 Norte 0 -- -- 83
2020-11-07 00:00:00 18 12 Norte 27 Norte 0 -- -- 83
2020-11-06 23:00:00 18.1 9 Norte 17 Norte 0 -- -- 80
2020-11-06 22:00:00 18.1 4 Norte 22 Sudeste 0 -- -- 79
2020-11-06 21:00:00 18.5 13 Este 33 Este 0 -- -- 76
2020-11-06 20:00:00 18.4 4 Este 26 Sudeste 0 -- -- 77
2020-11-06 19:00:00 18.5 10 Este 26 Este 0 -- -- 77
2020-11-06 18:00:00 18.5 9 Sudeste 24 Sudeste 0 -- -- 76
2020-11-06 17:00:00 18.9 10 Sudeste 31 Este 0 -- -- 75
2020-11-06 16:00:00 19.2 9 Este 24 Este 0 -- -- 73
2020-11-06 15:00:00 19.6 8 Este 26 Este 0 -- -- 74
2020-11-06 14:00:00 19.6 12 Este 28 Nordeste 0 -- -- 73
2020-11-06 13:00:00 19.4 10 Este 27 Este 0 -- -- 76
2020-11-06 12:00:00 19 9 Este 28 Sudeste 0 -- -- 77
2020-11-06 11:00:00 18.8 10 Este 30 Este 0 -- -- 79
2020-11-06 10:00:00 17.9 13 Norte 27 Nordeste 0 -- -- 85
2020-11-06 09:00:00 17.2 13 Norte 29 Noroeste 0 -- -- 88
2020-11-06 08:00:00 16.8 14 Norte 26 Noroeste 0 -- -- 88
2020-11-06 07:00:00 16.5 12 Norte 22 Norte 0 -- -- 89
2020-11-06 06:00:00 16.4 8 Norte 14 Norte 0 -- -- 88
2020-11-06 05:00:00 16.3 6 Norte 10 Noroeste 0 -- -- 88
2020-11-06 04:00:00 16.1 6 Norte 13 Norte 0 -- -- 87
2020-11-06 03:00:00 15.9 7 Noroeste 15 Norte 0 -- -- 86
2020-11-06 02:00:00 15.6 9 Norte 17 Norte 0 -- -- 89
2020-11-06 01:00:00 15.3 9 Norte 18 Norte 0 -- -- 91
2020-11-06 00:00:00 15.4 12 Norte 22 Norte 0 -- -- 90
2020-11-05 23:00:00 15.3 9 Norte 21 Norte 0 -- -- 89
2020-11-05 22:00:00 15.1 9 Norte 18 Norte 0 -- -- 90
2020-11-05 21:00:00 14 2 Sudeste 6 Norte 0 -- -- 92
2020-11-05 20:00:00 15 3 Sur 19 Norte 0 -- -- 89
2020-11-05 19:00:00 15.4 11 Norte 29 Nordeste 0 -- -- 88
2020-11-05 18:00:00 15 8 Norte 18 Norte 0.6 -- -- 91
2020-11-05 17:00:00 14.7 6 Noroeste 18 Norte 0.8 -- -- 91
2020-11-05 16:00:00 14.7 10 Norte 29 Noroeste 0 -- -- 89
2020-11-05 15:00:00 14.7 10 Noroeste 21 Noroeste 0.2 -- -- 86
2020-11-05 14:00:00 14.8 10 Noroeste 37 Norte 0.6 -- -- 87
2020-11-05 13:00:00 14.4 17 Norte 36 Norte 0 -- -- 87
2020-11-05 12:00:00 14.3 8 Noroeste 31 Norte 0 -- -- 85
2020-11-05 11:00:00 13.7 16 Norte 31 Norte 0 -- -- 88
2020-11-05 10:00:00 12.9 6 Norte 27 Noroeste 0.4 -- -- 90
2020-11-05 09:00:00 12.8 10 Norte 24 Nordeste 0 -- -- 87
2020-11-05 08:00:00 12.4 13 Norte 36 Norte 0.8 -- -- 87
2020-11-05 07:00:00 12.7 13 Norte 46 Norte 0 -- -- 87
2020-11-05 06:00:00 12.8 15 Norte 48 Este 0.2 -- -- 88
2020-11-05 05:00:00 12.7 15 Norte 47 Norte 0 -- -- 87
2020-11-05 04:00:00 12.5 10 Norte 35 Nordeste 0 -- -- 87
2020-11-05 03:00:00 12.5 10 Norte 44 Norte 0 -- -- 87
2020-11-05 02:00:00 12.5 8 Norte 24 Norte 0 -- -- 88
2020-11-05 01:00:00 12.4 13 Norte 31 Norte 0.2 -- -- 88
2020-11-05 00:00:00 12.2 7 Norte 25 Norte 0.4 -- -- 90
2020-11-04 23:00:00 12 8 Norte 28 Norte 0.2 -- -- 89
2020-11-04 22:00:00 11.8 9 Norte 31 Este 0.2 -- -- 90
2020-11-04 21:00:00 11.8 7 Norte 23 Este 0.4 -- -- 88
2020-11-04 20:00:00 12 7 Noroeste 24 Norte 0 -- -- 87
2020-11-04 19:00:00 11.8 7 Norte 19 Nordeste 0 -- -- 88
2020-11-04 18:00:00 11.8 6 Norte 17 Norte 0 -- -- 88
2020-11-04 17:00:00 11.7 6 Norte 20 Noroeste 0 -- -- 87
2020-11-04 16:00:00 11.4 7 Norte 13 Norte 0 -- -- 91
2020-11-04 15:00:00 11.8 5 Norte 12 Noroeste 0 -- -- 90
2020-11-04 14:00:00 11.8 3 Norte 10 Norte 0.2 -- -- 92
2020-11-04 13:00:00 11.5 6 Norte 11 Norte 0.6 -- -- 93
2020-11-04 12:00:00 11.5 3 Norte 9 Norte 1.6 -- -- 93
2020-11-04 11:00:00 11.6 4 Noroeste 21 Norte 1.2 -- -- 93
2020-11-04 10:00:00 11.9 10 Norte 16 Norte 0.2 -- -- 93
2020-11-04 09:00:00 11.7 0 Calma 5 Este 0.4 -- -- 94
2020-11-04 08:00:00 11.5 0 Calma 10 Norte 1 -- -- 93
2020-11-04 07:00:00 11.7 8 Noroeste 23 Noroeste 2 -- -- 89
2020-11-04 06:00:00 12.9 4 Norte 8 Noroeste 0 -- -- 89
2020-11-04 05:00:00 13.1 4 Norte 10 Norte 0 -- -- 89
2020-11-04 04:00:00 13.2 4 Noroeste 10 Norte 1.2 -- -- 91
2020-11-04 03:00:00 13.4 6 Norte 15 Nordeste 1.4 -- -- 87
2020-11-04 02:00:00 15.3 8 Norte 16 Norte 0 -- -- 77
2020-11-04 01:00:00 15.9 7 Nordeste 15 Nordeste 0 -- -- 73
2020-11-04 00:00:00 16.5 7 Este 19 Sudeste 0 -- -- 75
2020-11-03 23:00:00 16.7 3 Sur 8 Sudeste 0 -- -- 75
2020-11-03 22:00:00 16.8 0 Calma 8 Este 0 -- -- 72
2020-11-03 21:00:00 17 5 Sudeste 12 Nordeste 0 -- -- 73
2020-11-03 20:00:00 17.1 2 Sudeste 8 Este 0 -- -- 71
2020-11-03 19:00:00 17.7 0 Calma 15 Sur 0 -- -- 69
2020-11-03 18:00:00 18.4 7 Sudeste 18 Este 0 -- -- 66
2020-11-03 17:00:00 19.6 7 Sudeste 18 Este 0 -- -- 60
2020-11-03 16:00:00 21.1 6 Nordeste 26 Norte 0 -- -- 56
2020-11-03 15:00:00 20.5 11 Norte 24 Nordeste 0 -- -- 58
2020-11-03 14:00:00 20.4 13 Norte 23 Norte 0 -- -- 59
2020-11-03 13:00:00 19.5 11 Norte 19 Noroeste 0 -- -- 64
2020-11-03 12:00:00 18.6 5 Nordeste 12 Nordeste 0 -- -- 64
2020-11-03 11:00:00 15 3 Este 8 Sudeste 0 -- -- 57
2020-11-03 10:00:00 11.4 4 Este 7 Este 0 -- -- 64
2020-11-03 09:00:00 7.3 0 Calma 3 Sudeste 0 -- -- 77
2020-11-03 08:00:00 3.9 0 Calma 0 Calma 0 -- -- 87
2020-11-03 07:00:00 4 0 Calma 3 Sudeste 0 -- -- 85
2020-11-03 06:00:00 4.6 0 Calma 2 Sudeste 0 -- -- 85
2020-11-03 05:00:00 4.9 0 Calma 0 Calma 0 -- -- 82
2020-11-03 04:00:00 5.5 0 Calma 2 Sudoeste 0 -- -- 80
2020-11-03 03:00:00 6.2 0 Calma 2 Noroeste 0 -- -- 77
2020-11-03 02:00:00 6.8 0 Calma 2 Sudeste 0 -- -- 75
2020-11-03 01:00:00 7.6 0 Calma 2 Sudeste 0 -- -- 71
2020-11-03 00:00:00 8.7 0 Calma 2 Sudeste 0 -- -- 68
2020-11-02 23:00:00 9.8 0 Calma 2 Norte 0 -- -- 63
2020-11-02 22:00:00 11.2 0 Calma 5 Sudeste 0 -- -- 58
2020-11-02 21:00:00 12.9 0 Calma 2 Sudoeste 0 -- -- 53
2020-11-02 20:00:00 14.8 0 Calma 3 Sudoeste 0 -- -- 48
2020-11-02 19:00:00 17.1 0 Calma 3 Norte 0 -- -- 44
2020-11-02 18:00:00 20.6 0 Calma 4 Sudoeste 0 -- -- 37
2020-11-02 17:00:00 24.6 3 Noroeste 14 Norte 0 -- -- 31
2020-11-02 16:00:00 27.6 7 Sur 15 Noroeste 0 -- -- 26
2020-11-02 15:00:00 27.5 3 Sur 9 Sudeste 0 -- -- 30
2020-11-02 14:00:00 25.4 4 Sudeste 8 Sudeste 0 -- -- 35
2020-11-02 13:00:00 22.5 4 Sudeste 8 Sudeste 0 -- -- 42
2020-11-02 12:00:00 18.5 0 Calma 8 Sudeste 0 -- -- 50
2020-11-02 11:00:00 15.5 3 Sudeste 7 Sudeste 0 -- -- 57
2020-11-02 10:00:00 11.8 2 Este 4 Nordeste 0 -- -- 68
2020-11-02 09:00:00 7.7 0 Calma 3 Este 0 -- -- 82
2020-11-02 08:00:00 4.2 0 Calma 0 Calma 0 -- -- 91
2020-11-02 07:00:00 4.6 0 Calma 2 Sudeste 0 -- -- 90
2020-11-02 06:00:00 5.2 0 Calma 2 Sudeste 0 -- -- 89
2020-11-02 05:00:00 5.6 0 Calma 2 Sudeste 0 -- -- 88
2020-11-02 04:00:00 6.5 0 Calma 2 Sudoeste 0 -- -- 86
2020-11-02 03:00:00 7.3 0 Calma 2 Sur 0 -- -- 83
2020-11-02 02:00:00 8.1 0 Calma 2 Sudeste 0 -- -- 81
2020-11-02 01:00:00 8.7 0 Calma 2 Norte 0 -- -- 78
2020-11-02 00:00:00 9.9 0 Calma 2 Este 0 -- -- 74
2020-11-01 23:00:00 11.3 0 Calma 4 Sudeste 0 -- -- 69
2020-11-01 22:00:00 12.5 0 Calma 3 Noroeste 0 -- -- 65
2020-11-01 21:00:00 14.4 0 Calma 3 Este 0 -- -- 59
2020-11-01 20:00:00 16.3 0 Calma 5 Norte 0 -- -- 54
2020-11-01 19:00:00 18.3 0 Calma 5 Noroeste 0 -- -- 48
2020-11-01 18:00:00 21.4 0 Calma 5 Sudoeste 0 -- -- 41
2020-11-01 17:00:00 25.1 3 Oeste 21 Sur 0 -- -- 34
2020-11-01 16:00:00 27.3 11 Sur 24 Sudoeste 0 -- -- 31
2020-11-01 15:00:00 27.1 11 Sudoeste 25 Sudoeste 0 -- -- 32
2020-11-01 14:00:00 26.5 8 Sudoeste 19 Noroeste 0 -- -- 33
2020-11-01 13:00:00 23.2 5 Este 9 Este 0 -- -- 41
2020-11-01 12:00:00 19.2 3 Sur 8 Sudeste 0 -- -- 49
2020-11-01 11:00:00 16 2 Este 8 Este 0 -- -- 58
2020-11-01 10:00:00 12.1 3 Este 5 Este 0 -- -- 69
2020-11-01 09:00:00 7.8 0 Calma 4 Sudeste 0 -- -- 85
2020-11-01 08:00:00 4.5 0 Calma 2 Sudoeste 0 -- -- 93
2020-11-01 07:00:00 4.8 0 Calma 2 Noroeste 0 -- -- 92
2020-11-01 06:00:00 5.5 0 Calma 2 Sudeste 0 -- -- 91
2020-11-01 05:00:00 6 0 Calma 3 Sudeste 0 -- -- 89
2020-11-01 04:00:00 7 0 Calma 2 Sur 0 -- -- 88
2020-11-01 03:00:00 7.8 0 Calma 2 Sudoeste 0 -- -- 86
2020-11-01 02:00:00 8.4 0 Calma 4 Sudeste 0 -- -- 84
2020-11-01 01:00:00 9.7 0 Calma 4 Este 0 -- -- 79
2020-11-01 00:00:00 10.6 0 Calma 4 Sudoeste 0 -- -- 76
2020-10-31 23:00:00 11.8 0 Calma 3 Sudeste 0 -- -- 73
2020-10-31 22:00:00 13.6 0 Calma 3 Noroeste 0 -- -- 68
2020-10-31 21:00:00 15.4 0 Calma 3 Sudeste 0 -- -- 60
2020-10-31 20:00:00 17.5 0 Calma 5 Sudoeste 0 -- -- 52
2020-10-31 19:00:00 19.2 0 Calma 5 Este 0 -- -- 47
2020-10-31 18:00:00 22 0 Calma 6 Sudoeste 0 -- -- 41
2020-10-31 17:00:00 25.1 0 Calma 13 Sur 0 -- -- 35
2020-10-31 16:00:00 27.1 6 Oeste 14 Noroeste 0 -- -- 29
2020-10-31 15:00:00 27.3 10 Sur 22 Sur 0 -- -- 26
2020-10-31 14:00:00 25.7 5 Sudeste 9 Sudeste 0 -- -- 34
2020-10-31 13:00:00 21.9 2 Sudeste 8 Este 0 -- -- 45
2020-10-31 12:00:00 18.2 4 Este 9 Nordeste 0 -- -- 53
2020-10-31 11:00:00 14.9 2 Este 6 Este 0 -- -- 62
2020-10-31 10:00:00 11.3 3 Este 5 Este 0 -- -- 75
2020-10-31 09:00:00 7.5 0 Calma 4 Sudeste 0 -- -- 90
2020-10-31 08:00:00 4.1 0 Calma -- -- 0 -- -- 94
2020-10-31 07:00:00 4.3 0 Calma -- -- 0 -- -- 93
2020-10-31 06:00:00 4.8 0 Calma -- -- 0 -- -- 93
2020-10-31 05:00:00 5.3 0 Calma -- -- 0 -- -- 93
2020-10-31 04:00:00 5.9 0 Calma 0 Calma 0 -- -- 92
2020-10-31 03:00:00 6.7 0 Calma 2 Norte 0 -- -- 90
2020-10-31 02:00:00 7.6 0 Calma 2 Oeste 0 -- -- 89
2020-10-31 01:00:00 8.2 0 Calma 4 Sudeste 0 -- -- 88
2020-10-31 00:00:00 9.1 0 Calma 4 Norte 0 -- -- 86
2020-10-30 23:00:00 10.5 0 Calma 3 Sur 0 -- -- 82
2020-10-30 22:00:00 12.1 0 Calma 2 Norte 0 -- -- 78
2020-10-30 21:00:00 13.9 0 Calma 3 Norte 0 -- -- 72
2020-10-30 20:00:00 15.5 0 Calma 3 Sudeste 0 -- -- 65
2020-10-30 19:00:00 17.4 0 Calma 4 Noroeste 0 -- -- 56
2020-10-30 18:00:00 21 0 Calma 8 Noroeste 0 -- -- 47
2020-10-30 17:00:00 24.2 4 Oeste 13 Norte 0 -- -- 39
2020-10-30 16:00:00 25.9 7 Norte 14 Noroeste 0 -- -- 35
2020-10-30 15:00:00 25.3 7 Noroeste 14 Norte 0 -- -- 36
2020-10-30 14:00:00 23.7 6 Nordeste 13 Nordeste 0 -- -- 40
2020-10-30 13:00:00 21.6 4 Nordeste 9 Este 0 -- -- 48
2020-10-30 12:00:00 17.5 2 Oeste 7 Este 0 -- -- 58
2020-10-30 11:00:00 14.1 3 Sudoeste 6 Este 0 -- -- 68
2020-10-30 10:00:00 11.1 2 Este 5 Este 0 -- -- 77
2020-10-30 09:00:00 7.5 0 Calma 4 Este 0 -- -- 91
2020-10-30 08:00:00 4.3 0 Calma 2 Noroeste 0 -- -- 94
2020-10-30 07:00:00 4.5 0 Calma 0 Calma 0 -- -- 93
2020-10-30 06:00:00 5.1 0 Calma 0 Calma 0 -- -- 93
2020-10-30 05:00:00 5.6 0 Calma 0 Calma 0 -- -- 92
2020-10-30 04:00:00 6.2 0 Calma 2 Sudoeste 0 -- -- 92
2020-10-30 03:00:00 6.9 0 Calma 2 Este 0 -- -- 91
2020-10-30 02:00:00 7.7 0 Calma 2 Norte 0 -- -- 90
2020-10-30 01:00:00 8.4 0 Calma 4 Sudeste 0 -- -- 88
2020-10-30 00:00:00 9.4 0 Calma 2 Norte 0 -- -- 86
2020-10-29 23:00:00 10.5 0 Calma 3 Noroeste 0 -- -- 83
2020-10-29 22:00:00 11.9 0 Calma 3 Oeste 0 -- -- 78
2020-10-29 21:00:00 13.5 0 Calma 2 Este 0 -- -- 73
2020-10-29 20:00:00 15.4 0 Calma 5 Noroeste 0 -- -- 67
2020-10-29 19:00:00 18.8 4 Noroeste 14 Oeste 0 -- -- 56
2020-10-29 18:00:00 21.1 8 Oeste 12 Oeste 0 -- -- 49
2020-10-29 17:00:00 23.1 7 Norte 16 Norte 0 -- -- 46
2020-10-29 16:00:00 23.8 8 Norte 21 Norte 0 -- -- 45
2020-10-29 15:00:00 23.5 8 Norte 18 Noroeste 0 -- -- 46
2020-10-29 14:00:00 22.8 6 Noroeste 13 Norte 0 -- -- 47
2020-10-29 13:00:00 20.9 5 Sudeste 11 Sudeste 0 -- -- 51
2020-10-29 12:00:00 18.4 3 Norte 11 Sudeste 0 -- -- 58
2020-10-29 11:00:00 15.5 4 Sudeste 9 Sudeste 0 -- -- 66
2020-10-29 10:00:00 12.7 2 Nordeste 5 Este 0 -- -- 76
2020-10-29 09:00:00 9.2 2 Nordeste 5 Nordeste 0 -- -- 91
2020-10-29 08:00:00 5.7 0 Calma 2 Sudeste 0 -- -- 94
2020-10-29 07:00:00 6.1 0 Calma 2 Sudeste 0 -- -- 93
2020-10-29 06:00:00 6.6 0 Calma 3 Sudoeste 0 -- -- 92
2020-10-29 05:00:00 7.4 0 Calma 6 Nordeste 0 -- -- 92
2020-10-29 04:00:00 7.9 0 Calma 3 Noroeste 0 -- -- 91
2020-10-29 03:00:00 8.4 3 Noroeste 5 Noroeste 0 -- -- 90
2020-10-29 02:00:00 9.4 0 Calma 5 Sudeste 0 -- -- 88
2020-10-29 01:00:00 10.5 2 Sur 5 Sudeste 0 -- -- 85
2020-10-29 00:00:00 11.6 0 Calma 4 Nordeste 0 -- -- 80
2020-10-28 23:00:00 13.7 0 Calma 13 Oeste 0 -- -- 74
2020-10-28 22:00:00 14.4 4 Oeste 9 Sudoeste 0 -- -- 74
2020-10-28 21:00:00 15.6 0 Calma 10 Este 0 -- -- 68
2020-10-28 20:00:00 18 3 Sudeste 10 Este 0 -- -- 61
2020-10-28 19:00:00 20 5 Oeste 23 Oeste 0 -- -- 55
2020-10-28 18:00:00 20.9 9 Noroeste 24 Noroeste 0 -- -- 53
2020-10-28 17:00:00 21.1 4 Sudeste 15 Sudeste 0 -- -- 52
2020-10-28 16:00:00 21.5 11 Sur 24 Sudoeste 0 -- -- 50
2020-10-28 15:00:00 21.9 11 Sudoeste 23 Sudoeste 0 -- -- 46
2020-10-28 14:00:00 21 10 Sur 27 Sudoeste 0 -- -- 48
2020-10-28 13:00:00 18.8 12 Sudoeste 21 Sudoeste 0 -- -- 52
2020-10-28 12:00:00 17.5 11 Sudoeste 24 Sur 0 -- -- 55
2020-10-28 11:00:00 16.4 4 Este 13 Nordeste 0 -- -- 57
2020-10-28 10:00:00 13.4 7 Norte 13 Nordeste 0 -- -- 66
2020-10-28 09:00:00 10.6 8 Norte 15 Norte 0 -- -- 75
2020-10-28 08:00:00 10.2 5 Noroeste 10 Noroeste 0 -- -- 76
2020-10-28 07:00:00 8.4 3 Norte 12 Norte 0 -- -- 79
2020-10-28 06:00:00 7.4 0 Calma 6 Este 0 -- -- 81
2020-10-28 05:00:00 7.3 2 Este 11 Noroeste 0 -- -- 77
2020-10-28 04:00:00 8.2 2 Norte 10 Noroeste 0 -- -- 73
2020-10-28 03:00:00 8.7 3 Noroeste 12 Norte 0 -- -- 71
2020-10-28 02:00:00 8.3 0 Calma 4 Este 0 -- -- 73
2020-10-28 01:00:00 8.7 0 Calma 6 Norte 0 -- -- 70
2020-10-28 00:00:00 9.4 0 Calma 7 Oeste 0 -- -- 66